createdAt,value
2022-08-22T00:01:07.058Z,38.98
2022-08-22T00:02:20.396Z,29.84
2022-08-22T00:02:43.366Z,8.68
2022-08-22T00:02:48.855Z,8.73
2022-08-22T00:02:53.247Z,14.76
2022-08-22T00:02:54.356Z,9.15
2022-08-22T00:02:57.968Z,24.42
2022-08-22T00:02:58.998Z,20.21
2022-08-22T00:03:01.453Z,7.73
2022-08-22T00:03:06.692Z,20.16
2022-08-22T00:03:35.015Z,22.86
2022-08-22T00:04:48.282Z,25.03
2022-08-22T00:06:00.770Z,31.58
2022-08-22T00:07:30.554Z,25.88
2022-08-22T00:09:06.736Z,38.54
2022-08-22T00:10:21.019Z,23.23
2022-08-22T00:11:37.364Z,28.21
2022-08-22T00:12:59.565Z,26.39
2022-08-22T00:14:16.820Z,34.58
2022-08-22T00:15:42.122Z,37.89
2022-08-22T00:16:43.797Z,26.87
2022-08-22T00:18:09.744Z,23.87
2022-08-22T00:19:25.566Z,28.97
2022-08-22T00:20:35.326Z,28.61
2022-08-22T00:21:50.733Z,23.73
2022-08-22T00:23:12.216Z,22.34
2022-08-22T00:24:28.095Z,18.50
2022-08-22T00:25:41.387Z,35.87
2022-08-22T00:26:48.452Z,16.58
2022-08-22T00:28:14.662Z,23.36
2022-08-22T00:29:21.302Z,26.98
2022-08-22T00:30:26.404Z,20.89
2022-08-22T00:31:33.123Z,32.15
2022-08-22T00:32:48.933Z,31.93
2022-08-22T00:34:11.966Z,23.96
2022-08-22T00:35:18.720Z,23.47
2022-08-22T00:36:50.478Z,26.34
2022-08-22T00:38:12.496Z,24.53
2022-08-22T00:39:40.608Z,26.33
2022-08-22T00:40:58.666Z,24.84
2022-08-22T00:42:14.624Z,35.12
2022-08-22T00:43:40.874Z,27.46
2022-08-22T00:44:50.716Z,19.86
2022-08-22T00:46:14.035Z,24.98
2022-08-22T00:47:29.170Z,24.23
2022-08-22T00:48:45.102Z,29.04
2022-08-22T00:50:11.256Z,27.26
2022-08-22T00:51:17.947Z,22.18
2022-08-22T00:52:39.490Z,29.17
2022-08-22T00:54:18.193Z,29.89
2022-08-22T00:55:34.918Z,28.26
2022-08-22T00:57:07.388Z,26.17
2022-08-22T00:58:30.503Z,17.79
2022-08-22T01:00:05.258Z,27.46
2022-08-22T01:01:11.961Z,22.52
2022-08-22T01:02:24.351Z,19.52
2022-08-22T01:03:43.148Z,31.02
2022-08-22T01:04:50.534Z,18.92
2022-08-22T01:06:18.224Z,20.46
2022-08-22T01:07:38.003Z,32.03
2022-08-22T01:09:19.915Z,27.29
2022-08-22T01:10:43.112Z,23.41
2022-08-22T01:12:01.418Z,27.61
2022-08-22T01:13:14.186Z,22.21
2022-08-22T01:14:43.666Z,25.84
2022-08-22T01:15:49.858Z,24.49
2022-08-22T01:17:19.449Z,21.12
2022-08-22T01:18:38.242Z,25.88
2022-08-22T01:20:04.886Z,21.92
2022-08-22T01:21:28.129Z,26.02
2022-08-22T01:22:56.060Z,31.18
2022-08-22T01:24:17.962Z,32.36
2022-08-22T01:25:32.162Z,23.46
2022-08-22T01:26:54.181Z,30.61
2022-08-22T01:28:30.881Z,30.08
2022-08-22T01:30:03.538Z,27.39
2022-08-22T01:33:02.977Z,31.83
2022-08-22T01:34:27.742Z,28.46
2022-08-22T01:35:54.107Z,18.35
2022-08-22T01:37:09.565Z,22.98
2022-08-22T01:38:17.529Z,26.46
2022-08-22T01:39:42.050Z,28.21
2022-08-22T01:40:54.699Z,29.71
2022-08-22T01:42:22.480Z,21.10
2022-08-22T01:43:59.715Z,17.71
2022-08-22T01:45:11.717Z,34.32
2022-08-22T01:46:33.742Z,20.93
2022-08-22T01:47:46.672Z,24.37
2022-08-22T01:48:56.501Z,31.42
2022-08-22T01:50:15.380Z,25.72
2022-08-22T01:52:51.371Z,30.49
2022-08-22T01:54:04.161Z,24.88
2022-08-22T01:55:22.956Z,24.87
2022-08-22T01:56:30.175Z,17.92
2022-08-22T01:57:36.853Z,20.14
2022-08-22T01:58:58.815Z,29.21
2022-08-22T02:00:09.370Z,23.13
2022-08-22T02:01:26.663Z,23.23
2022-08-22T02:02:36.212Z,25.43
2022-08-22T02:03:59.902Z,26.48
2022-08-22T02:05:06.883Z,25.74
2022-08-22T02:06:19.774Z,18.47
2022-08-22T02:07:46.008Z,29.33
2022-08-22T02:08:52.681Z,21.15
2022-08-22T02:10:14.604Z,26.02
2022-08-22T02:11:56.037Z,18.74
2022-08-22T02:13:06.301Z,26.54
2022-08-22T02:14:32.568Z,22.38
2022-08-22T02:15:44.000Z,27.92
2022-08-22T02:16:51.044Z,29.31
2022-08-22T02:18:06.547Z,19.24
2022-08-22T02:19:19.297Z,18.35
2022-08-22T02:20:29.070Z,25.34
2022-08-22T02:21:38.783Z,25.25
2022-08-22T02:22:54.721Z,16.73
2022-08-22T02:24:04.230Z,18.99
2022-08-22T02:25:17.158Z,18.31
2022-08-22T02:26:26.868Z,33.83
2022-08-22T02:27:59.439Z,28.40
2022-08-22T02:29:17.761Z,23.73
2022-08-22T02:30:24.832Z,17.74
2022-08-22T02:31:40.609Z,23.36
2022-08-22T02:32:47.368Z,16.92
2022-08-22T02:33:54.128Z,18.73
2022-08-22T02:35:13.681Z,22.17
2022-08-22T02:36:44.339Z,19.08
2022-08-22T02:37:59.836Z,28.33
2022-08-22T02:39:09.741Z,19.53
2022-08-22T02:40:22.806Z,16.71
2022-08-22T02:41:50.520Z,20.02
2022-08-22T02:43:15.213Z,22.30
2022-08-22T02:44:37.053Z,23.31
2022-08-22T02:45:52.770Z,28.82
2022-08-22T02:47:08.493Z,18.87
2022-08-22T02:48:33.464Z,24.05
2022-08-22T02:49:52.320Z,16.82
2022-08-22T02:51:05.159Z,22.84
2022-08-22T02:52:14.615Z,18.31
2022-08-22T02:53:30.087Z,18.67
2022-08-22T02:54:56.073Z,21.18
2022-08-22T02:56:05.757Z,20.94
2022-08-22T02:57:28.754Z,23.38
2022-08-22T02:58:49.845Z,31.48
2022-08-22T03:00:04.389Z,19.85
2022-08-22T03:01:16.674Z,18.98
2022-08-22T03:02:29.264Z,15.36
2022-08-22T03:03:35.922Z,26.78
2022-08-22T03:04:48.348Z,28.80
2022-08-22T03:06:04.813Z,23.51
2022-08-22T03:07:23.353Z,18.96
2022-08-22T03:08:30.535Z,14.33
2022-08-22T03:09:37.182Z,19.36
2022-08-22T03:10:56.099Z,17.27
2022-08-22T03:12:25.310Z,19.37
2022-08-22T03:14:05.276Z,19.96
2022-08-22T03:15:20.847Z,27.04
2022-08-22T03:16:30.824Z,14.30
2022-08-22T03:17:37.866Z,15.84
2022-08-22T03:18:50.518Z,18.83
2022-08-22T03:20:03.787Z,19.12
2022-08-22T03:21:34.832Z,16.31
2022-08-22T03:22:53.774Z,19.71
2022-08-22T03:25:39.218Z,13.24
2022-08-22T03:26:54.930Z,14.51
2022-08-22T03:28:01.616Z,18.78
2022-08-22T03:29:08.459Z,15.53
2022-08-22T03:30:21.394Z,16.08
2022-08-22T03:31:25.511Z,17.28
2022-08-22T03:32:48.634Z,16.69
2022-08-22T03:34:19.758Z,13.33
2022-08-22T03:35:26.449Z,14.14
2022-08-22T03:36:31.364Z,19.32
2022-08-22T03:37:41.211Z,14.92
2022-08-22T03:39:17.227Z,13.83
2022-08-22T03:40:48.639Z,17.70
2022-08-22T03:42:01.965Z,21.31
2022-08-22T03:43:11.732Z,21.03
2022-08-22T03:44:30.211Z,11.47
2022-08-22T03:45:51.993Z,13.02
2022-08-22T03:47:21.470Z,17.74
2022-08-22T03:48:58.218Z,14.16
2022-08-22T03:50:24.427Z,18.77
2022-08-22T03:51:31.079Z,20.38
2022-08-22T03:53:04.877Z,19.87
2022-08-22T03:54:11.569Z,11.38
2022-08-22T03:55:24.102Z,17.88
2022-08-22T03:56:49.490Z,12.58
2022-08-22T03:58:00.845Z,18.17
2022-08-22T03:59:42.765Z,11.41
2022-08-22T04:01:07.817Z,20.19
2022-08-22T04:02:24.622Z,9.43
2022-08-22T04:03:57.104Z,23.28
2022-08-22T04:05:26.452Z,18.29
2022-08-22T04:06:49.915Z,15.49
2022-08-22T04:08:14.972Z,16.67
2022-08-22T04:09:42.924Z,12.49
2022-08-22T04:11:18.170Z,9.99
2022-08-22T04:12:30.571Z,14.30
2022-08-22T04:14:05.867Z,8.48
2022-08-22T04:15:31.579Z,14.51
2022-08-22T04:16:56.753Z,12.22
2022-08-22T04:18:24.276Z,7.96
2022-08-22T04:19:47.760Z,9.22
2022-08-22T04:21:09.408Z,12.35
2022-08-22T04:22:38.524Z,10.27
2022-08-22T04:24:16.949Z,13.49
2022-08-22T04:25:24.898Z,8.16
2022-08-22T04:26:41.845Z,7.12
2022-08-22T04:27:55.204Z,9.19
2022-08-22T04:29:20.088Z,11.97
2022-08-22T04:30:36.394Z,8.25
2022-08-22T04:31:48.981Z,18.31
2022-08-22T04:32:59.837Z,11.88
2022-08-22T04:35:39.149Z,9.81
2022-08-22T04:36:57.866Z,16.29
2022-08-22T04:38:13.495Z,7.55
2022-08-22T04:39:22.714Z,12.63
2022-08-22T04:40:42.024Z,13.46
2022-08-22T04:41:51.506Z,12.34
2022-08-22T04:42:58.241Z,11.53
2022-08-22T04:44:07.579Z,9.99
2022-08-22T04:45:29.363Z,8.85
2022-08-22T04:46:45.278Z,8.54
2022-08-22T04:47:58.617Z,7.36
2022-08-22T04:49:21.912Z,12.90
2022-08-22T04:50:34.494Z,9.47
2022-08-22T04:51:44.821Z,7.59
2022-08-22T04:53:10.076Z,8.42
2022-08-22T04:54:45.479Z,7.76
2022-08-22T04:56:04.142Z,10.24
2022-08-22T04:57:29.156Z,8.57
2022-08-22T04:58:52.795Z,16.48
2022-08-22T05:00:01.152Z,10.14
2022-08-22T05:01:07.897Z,15.61
2022-08-22T05:02:13.681Z,11.14
2022-08-22T05:03:20.271Z,7.26
2022-08-22T05:04:29.660Z,8.33
2022-08-22T05:05:36.312Z,5.14
2022-08-22T05:06:43.063Z,5.98
2022-08-22T05:07:49.774Z,5.20
2022-08-22T05:08:55.267Z,12.24
2022-08-22T05:10:11.694Z,12.58
2022-08-22T05:11:09.394Z,8.44
2022-08-22T05:12:16.053Z,9.14
2022-08-22T05:13:28.896Z,6.68
2022-08-22T05:14:41.498Z,9.47
2022-08-22T05:15:51.020Z,8.91
2022-08-22T05:16:57.548Z,6.99
2022-08-22T05:18:04.226Z,12.61
2022-08-22T05:19:24.987Z,11.52
2022-08-22T05:20:27.599Z,8.21
2022-08-22T05:21:34.422Z,5.89
2022-08-22T05:22:44.034Z,8.17
2022-08-22T05:23:53.289Z,6.70
2022-08-22T05:25:10.432Z,9.18
2022-08-22T05:26:15.549Z,11.97
2022-08-22T05:27:27.806Z,5.71
2022-08-22T05:28:42.662Z,6.68
2022-08-22T05:29:49.151Z,8.68
2022-08-22T05:30:54.138Z,7.63
2022-08-22T05:32:03.572Z,7.98
2022-08-22T05:33:19.509Z,6.68
2022-08-22T05:34:25.813Z,7.01
2022-08-22T05:35:38.693Z,4.27
2022-08-22T05:36:45.580Z,6.33
2022-08-22T05:37:52.674Z,10.99
2022-08-22T05:39:02.481Z,8.06
2022-08-22T05:40:08.437Z,8.73
2022-08-22T05:41:15.154Z,7.28
2022-08-22T05:42:25.557Z,6.23
2022-08-22T05:43:28.880Z,11.24
2022-08-22T05:44:35.009Z,4.06
2022-08-22T05:45:41.610Z,4.96
2022-08-22T05:46:49.465Z,5.07
2022-08-22T05:48:04.967Z,9.77
2022-08-22T05:49:14.583Z,7.51
2022-08-22T05:50:25.897Z,4.31
2022-08-22T05:52:04.608Z,7.02
2022-08-22T05:53:13.874Z,4.79
2022-08-22T05:54:33.799Z,3.94
2022-08-22T05:55:55.859Z,3.47
2022-08-22T05:57:11.741Z,7.80
2022-08-22T05:58:43.911Z,5.80
2022-08-22T05:59:50.752Z,3.43
2022-08-22T06:01:00.670Z,5.55
2022-08-22T06:02:16.541Z,6.54
2022-08-22T06:03:29.405Z,4.87
2022-08-22T06:04:39.592Z,5.74
2022-08-22T06:05:46.642Z,6.19
2022-08-22T06:07:05.691Z,6.55
2022-08-22T06:08:33.878Z,9.16
2022-08-22T06:09:49.767Z,9.58
2022-08-22T06:10:56.465Z,6.46
2022-08-22T06:12:06.319Z,5.54
2022-08-22T06:13:17.429Z,5.54
2022-08-22T06:14:47.228Z,5.61
2022-08-22T06:16:05.172Z,6.14
2022-08-22T06:17:24.409Z,5.29
2022-08-22T06:18:28.750Z,6.53
2022-08-22T06:19:36.066Z,6.17
2022-08-22T06:20:43.579Z,4.31
2022-08-22T06:21:50.384Z,10.79
2022-08-22T06:22:58.335Z,6.27
2022-08-22T06:24:04.630Z,5.72
2022-08-22T06:25:14.198Z,4.54
2022-08-22T06:26:20.226Z,5.52
2022-08-22T06:27:27.223Z,3.83
2022-08-22T06:28:36.091Z,4.87
2022-08-22T06:29:42.984Z,7.95
2022-08-22T06:30:47.328Z,5.78
2022-08-22T06:31:50.850Z,6.48
2022-08-22T06:32:59.388Z,3.43
2022-08-22T06:34:05.555Z,2.99
2022-08-22T06:35:21.138Z,2.73
2022-08-22T06:36:32.369Z,8.17
2022-08-22T06:37:40.925Z,5.24
2022-08-22T06:39:08.703Z,2.87
2022-08-22T06:40:15.882Z,5.45
2022-08-22T06:41:21.646Z,5.59
2022-08-22T06:42:28.479Z,6.82
2022-08-22T06:43:35.152Z,6.14
2022-08-22T06:44:41.242Z,8.34
2022-08-22T06:45:44.759Z,8.27
2022-08-22T06:46:50.654Z,6.19
2022-08-22T06:48:00.580Z,4.67
2022-08-22T06:49:04.173Z,11.47
2022-08-22T06:50:14.037Z,4.26
2022-08-22T06:51:19.421Z,4.51
2022-08-22T06:52:25.730Z,4.26
2022-08-22T06:53:48.134Z,3.88
2022-08-22T06:54:54.422Z,4.77
2022-08-22T06:56:02.498Z,10.22
2022-08-22T06:57:08.316Z,6.08
2022-08-22T06:58:39.404Z,4.66
2022-08-22T06:59:43.445Z,4.21
2022-08-22T07:00:58.805Z,3.68
2022-08-22T07:02:04.739Z,3.62
2022-08-22T07:03:11.464Z,5.20
2022-08-22T07:04:15.504Z,3.92
2022-08-22T07:05:22.079Z,4.16
2022-08-22T07:06:43.699Z,5.93
2022-08-22T07:07:47.537Z,3.18
2022-08-22T07:08:55.211Z,3.62
2022-08-22T07:09:58.468Z,7.77
2022-08-22T07:11:05.397Z,3.71
2022-08-22T07:12:15.144Z,2.99
2022-08-22T07:13:19.782Z,10.79
2022-08-22T07:14:29.302Z,5.48
2022-08-22T07:15:36.073Z,5.19
2022-08-22T07:16:42.875Z,3.91
2022-08-22T07:17:52.335Z,4.77
2022-08-22T07:18:55.734Z,3.58
2022-08-22T07:20:23.730Z,3.29
2022-08-22T07:21:30.405Z,4.30
2022-08-22T07:22:37.453Z,7.19
2022-08-22T07:23:46.019Z,3.06
2022-08-22T07:24:55.753Z,4.19
2022-08-22T07:26:17.627Z,6.16
2022-08-22T07:27:59.596Z,4.68
2022-08-22T07:29:11.228Z,7.24
2022-08-22T07:30:16.017Z,5.85
2022-08-22T07:31:30.596Z,3.12
2022-08-22T07:32:53.675Z,5.45
2022-08-22T07:34:12.899Z,3.99
2022-08-22T07:35:20.014Z,6.74
2022-08-22T07:36:39.146Z,4.33
2022-08-22T07:38:09.786Z,4.59
2022-08-22T07:39:25.689Z,5.82
2022-08-22T07:40:53.278Z,5.33
2022-08-22T07:42:00.036Z,9.35
2022-08-22T07:43:25.252Z,4.86
2022-08-22T07:45:54.450Z,2.94
2022-08-22T07:47:09.999Z,2.83
2022-08-22T07:48:25.873Z,4.67
2022-08-22T07:49:32.360Z,3.79
2022-08-22T07:50:38.965Z,3.70
2022-08-22T07:51:45.627Z,6.98
2022-08-22T07:52:50.612Z,5.37
2022-08-22T07:54:09.242Z,5.66
2022-08-22T07:55:24.530Z,3.38
2022-08-22T07:56:37.691Z,5.86
2022-08-22T07:57:44.080Z,7.11
2022-08-22T07:58:50.751Z,2.56
2022-08-22T07:59:57.037Z,3.82
2022-08-22T08:01:00.997Z,3.97
2022-08-22T08:02:07.696Z,5.67
2022-08-22T08:03:12.807Z,6.65
2022-08-22T08:04:21.320Z,4.66
2022-08-22T08:05:28.110Z,8.47
2022-08-22T08:06:31.991Z,1.59
2022-08-22T08:07:35.082Z,4.43
2022-08-22T08:08:44.195Z,5.25
2022-08-22T08:09:56.517Z,7.50
2022-08-22T08:11:01.636Z,5.90
2022-08-22T08:12:06.362Z,7.36
2022-08-22T08:13:13.682Z,8.44
2022-08-22T08:14:17.627Z,6.44
2022-08-22T08:15:23.516Z,3.06
2022-08-22T08:16:30.217Z,7.83
2022-08-22T08:17:35.212Z,9.56
2022-08-22T08:18:40.006Z,4.39
2022-08-22T08:19:46.758Z,4.86
2022-08-22T08:20:53.892Z,3.27
2022-08-22T08:21:58.463Z,3.09
2022-08-22T08:23:03.297Z,7.34
2022-08-22T08:24:10.060Z,8.84
2022-08-22T08:25:19.235Z,3.69
2022-08-22T08:26:26.035Z,3.24
2022-08-22T08:28:00.165Z,3.42
2022-08-22T08:28:57.635Z,5.51
2022-08-22T08:30:04.208Z,4.44
2022-08-22T08:32:33.880Z,3.43
2022-08-22T08:33:40.543Z,4.33
2022-08-22T08:34:44.262Z,7.55
2022-08-22T08:36:02.062Z,3.39
2022-08-22T08:37:12.884Z,4.75
2022-08-22T08:38:19.270Z,2.88
2022-08-22T08:39:37.989Z,3.53
2022-08-22T08:40:59.133Z,4.81
2022-08-22T08:42:22.406Z,2.14
2022-08-22T08:43:44.108Z,6.69
2022-08-22T08:45:05.927Z,5.86
2022-08-22T08:46:29.280Z,2.22
2022-08-22T08:48:00.678Z,3.19
2022-08-22T08:49:16.328Z,4.19
2022-08-22T08:50:39.600Z,6.63
2022-08-22T08:52:04.819Z,5.33
2022-08-22T08:53:17.564Z,4.04
2022-08-22T08:54:39.033Z,2.78
2022-08-22T08:55:47.612Z,7.24
2022-08-22T08:57:12.504Z,3.11
2022-08-22T08:59:45.040Z,7.67
2022-08-22T09:01:12.003Z,3.62
2022-08-22T09:02:34.796Z,4.77
2022-08-22T09:06:50.798Z,5.59
2022-08-22T09:08:16.428Z,5.63
2022-08-22T09:09:40.091Z,5.13
2022-08-22T09:11:09.752Z,3.62
2022-08-22T09:12:56.440Z,4.42
2022-08-22T09:14:17.666Z,4.43
2022-08-22T09:15:37.402Z,4.41
2022-08-22T09:16:52.049Z,5.92
2022-08-22T09:18:04.745Z,3.63
2022-08-22T09:19:20.834Z,5.00
2022-08-22T09:20:34.562Z,8.98
2022-08-22T09:22:14.681Z,5.41
2022-08-22T09:23:40.860Z,7.06
2022-08-22T09:25:01.419Z,3.45
2022-08-22T09:27:20.960Z,4.98
2022-08-22T09:28:41.735Z,5.30
2022-08-22T09:29:59.686Z,3.33
2022-08-22T09:31:47.806Z,2.47
2022-08-22T09:32:49.193Z,7.87
2022-08-22T09:33:55.721Z,5.97
2022-08-22T09:35:08.474Z,2.77
2022-08-22T09:36:33.707Z,4.19
2022-08-22T09:37:46.256Z,3.50
2022-08-22T09:38:57.435Z,7.49
2022-08-22T09:40:25.193Z,5.06
2022-08-22T09:41:51.920Z,8.35
2022-08-22T09:43:21.205Z,5.69
2022-08-22T09:44:39.582Z,3.13
2022-08-22T09:46:56.235Z,4.47
2022-08-22T09:48:07.296Z,5.96
2022-08-22T09:49:23.311Z,4.51
2022-08-22T09:50:54.561Z,2.54
2022-08-22T09:52:14.309Z,9.62
2022-08-22T09:53:30.171Z,3.37
2022-08-22T09:54:39.942Z,7.97
2022-08-22T09:55:58.788Z,4.04
2022-08-22T09:57:36.299Z,6.11
2022-08-22T09:59:02.461Z,6.75
2022-08-22T10:00:15.049Z,6.11
2022-08-22T10:01:21.879Z,2.67
2022-08-22T10:02:36.119Z,5.36
2022-08-22T10:04:05.275Z,5.08
2022-08-22T10:05:40.336Z,6.96
2022-08-22T10:06:24.531Z,7.19
2022-08-22T10:07:37.155Z,8.82
2022-08-22T10:08:50.194Z,6.78
2022-08-22T10:10:03.502Z,5.57
2022-08-22T10:11:13.431Z,5.11
2022-08-22T10:12:20.109Z,5.67
2022-08-22T10:13:46.474Z,5.67
2022-08-22T10:14:57.879Z,5.18
2022-08-22T10:16:21.097Z,7.30
2022-08-22T10:17:28.006Z,5.00
2022-08-22T10:19:00.827Z,8.42
2022-08-22T10:20:22.614Z,6.84
2022-08-22T10:21:29.490Z,3.48
2022-08-22T10:23:02.601Z,5.53
2022-08-22T10:24:25.110Z,4.15
2022-08-22T10:25:52.402Z,6.35
2022-08-22T10:26:59.247Z,3.77
2022-08-22T10:28:11.462Z,6.24
2022-08-22T10:29:28.057Z,8.33
2022-08-22T10:30:35.178Z,3.82
2022-08-22T10:31:59.174Z,10.56
2022-08-22T10:33:02.805Z,6.23
2022-08-22T10:34:10.219Z,8.06
2022-08-22T10:35:22.696Z,8.65
2022-08-22T10:36:40.412Z,8.05
2022-08-22T10:37:58.567Z,6.39
2022-08-22T10:39:11.083Z,5.14
2022-08-22T10:42:10.921Z,3.81
2022-08-22T10:43:29.929Z,7.46
2022-08-22T10:44:59.273Z,7.29
2022-08-22T10:46:12.469Z,10.57
2022-08-22T10:47:20.438Z,6.83
2022-08-22T10:48:36.308Z,3.27
2022-08-22T10:49:55.512Z,1.93
2022-08-22T10:51:19.858Z,5.67
2022-08-22T10:52:35.836Z,3.78
2022-08-22T10:53:57.416Z,7.49
2022-08-22T10:55:09.839Z,9.99
2022-08-22T10:56:29.283Z,7.34
2022-08-22T10:57:42.190Z,9.72
2022-08-22T10:58:55.647Z,7.38
2022-08-22T11:00:04.965Z,4.71
2022-08-22T11:01:37.070Z,4.18
2022-08-22T11:02:26.304Z,7.74
2022-08-22T11:03:49.363Z,9.79
2022-08-22T11:05:10.939Z,6.58
2022-08-22T11:06:45.363Z,4.19
2022-08-22T11:08:01.817Z,4.37
2022-08-22T11:09:20.525Z,8.15
2022-08-22T11:10:32.890Z,5.19
2022-08-22T11:11:44.323Z,5.62
2022-08-22T11:12:54.127Z,8.65
2022-08-22T11:14:17.124Z,8.54
2022-08-22T11:15:46.243Z,7.39
2022-08-22T11:17:23.647Z,4.23
2022-08-22T11:18:20.028Z,10.88
2022-08-22T11:19:39.063Z,9.65
2022-08-22T11:20:58.566Z,7.78
2022-08-22T11:22:27.573Z,5.83
2022-08-22T11:23:48.331Z,11.39
2022-08-22T11:25:14.825Z,3.15
2022-08-22T11:26:30.077Z,6.04
2022-08-22T11:27:52.234Z,6.03
2022-08-22T11:29:13.167Z,7.46
2022-08-22T11:30:18.383Z,8.06
2022-08-22T11:31:27.627Z,4.73
2022-08-22T11:32:36.117Z,3.84
2022-08-22T11:33:51.857Z,5.81
2022-08-22T11:35:04.845Z,5.81
2022-08-22T11:36:19.719Z,2.67
2022-08-22T11:37:48.014Z,3.04
2022-08-22T11:39:18.464Z,6.97
2022-08-22T11:40:37.640Z,4.45
2022-08-22T11:41:53.507Z,4.62
2022-08-22T11:43:35.772Z,6.88
2022-08-22T11:44:59.766Z,6.74
2022-08-22T11:46:19.822Z,2.64
2022-08-22T11:47:26.550Z,8.93
2022-08-22T11:48:55.145Z,5.73
2022-08-22T11:50:01.716Z,6.11
2022-08-22T11:51:13.575Z,3.56
2022-08-22T11:53:01.684Z,3.73
2022-08-22T11:53:57.254Z,4.51
2022-08-22T11:55:32.523Z,8.29
2022-08-22T11:56:40.142Z,10.16
2022-08-22T11:57:49.762Z,4.13
2022-08-22T11:59:09.209Z,7.39
2022-08-22T12:00:25.991Z,6.30
2022-08-22T12:01:52.238Z,4.22
2022-08-22T12:03:01.963Z,3.63
2022-08-22T12:04:18.823Z,3.77
2022-08-22T12:05:26.440Z,5.68
2022-08-22T12:07:00.609Z,5.20
2022-08-22T12:08:11.381Z,6.21
2022-08-22T12:09:21.084Z,4.53
2022-08-22T12:10:32.168Z,4.90
2022-08-22T12:12:01.345Z,6.73
2022-08-22T12:13:12.971Z,7.77
2022-08-22T12:14:21.009Z,5.68
2022-08-22T12:15:29.585Z,3.60
2022-08-22T12:16:56.177Z,6.72
2022-08-22T12:18:21.406Z,10.96
2022-08-22T12:19:33.089Z,4.61
2022-08-22T12:20:58.592Z,7.62
2022-08-22T12:22:34.189Z,5.66
2022-08-22T12:23:55.902Z,5.01
2022-08-22T12:25:03.298Z,5.54
2022-08-22T12:26:19.309Z,7.12
2022-08-22T12:27:30.992Z,8.59
2022-08-22T12:28:43.589Z,8.46
2022-08-22T12:30:13.894Z,5.67
2022-08-22T12:31:35.781Z,6.02
2022-08-22T12:32:43.738Z,4.51
2022-08-22T12:33:59.800Z,8.35
2022-08-22T12:35:14.010Z,6.31
2022-08-22T12:36:21.614Z,5.94
2022-08-22T12:37:52.247Z,5.72
2022-08-22T12:38:54.771Z,3.92
2022-08-22T12:40:19.658Z,7.28
2022-08-22T12:41:46.801Z,3.72
2022-08-22T12:43:02.201Z,6.86
2022-08-22T12:44:28.293Z,16.70
2022-08-22T12:45:36.999Z,5.14
2022-08-22T12:47:04.348Z,7.09
2022-08-22T12:48:22.541Z,3.08
2022-08-22T12:49:34.413Z,16.73
2022-08-22T12:50:47.762Z,4.45
2022-08-22T12:52:09.448Z,5.77
2022-08-22T12:53:34.201Z,6.69
2022-08-22T12:54:50.044Z,5.31
2022-08-22T12:55:56.635Z,9.29
2022-08-22T12:58:42.736Z,5.37
2022-08-22T12:59:50.581Z,3.86
2022-08-22T13:00:57.390Z,4.44
2022-08-22T13:02:04.646Z,7.48
2022-08-22T13:03:11.314Z,11.68
2022-08-22T13:04:33.003Z,6.65
2022-08-22T13:05:34.223Z,10.41
2022-08-22T13:06:43.491Z,8.58
2022-08-22T13:08:04.358Z,4.99
2022-08-22T13:09:28.506Z,7.02
2022-08-22T13:10:43.006Z,7.06
2022-08-22T13:11:51.573Z,6.92
2022-08-22T13:12:57.919Z,4.48
2022-08-22T13:14:02.278Z,6.27
2022-08-22T13:15:10.902Z,4.08
2022-08-22T13:16:19.005Z,5.00
2022-08-22T13:17:24.308Z,8.92
2022-08-22T13:18:37.956Z,9.29
2022-08-22T13:20:01.360Z,6.41
2022-08-22T13:21:10.389Z,4.09
2022-08-22T13:22:15.858Z,6.33
2022-08-22T13:23:43.848Z,8.73
2022-08-22T13:25:08.851Z,5.51
2022-08-22T13:26:32.158Z,3.77
2022-08-22T13:27:31.119Z,4.01
2022-08-22T13:28:37.781Z,6.21
2022-08-22T13:29:47.146Z,5.48
2022-08-22T13:30:52.852Z,8.74
2022-08-22T13:32:02.393Z,4.13
2022-08-22T13:33:09.933Z,7.16
2022-08-22T13:34:39.436Z,5.61
2022-08-22T13:35:51.707Z,4.03
2022-08-22T13:36:58.615Z,7.30
2022-08-22T13:38:12.246Z,6.54
2022-08-22T13:39:19.693Z,7.97
2022-08-22T13:40:29.291Z,7.11
2022-08-22T13:41:39.171Z,5.96
2022-08-22T13:42:50.234Z,7.94
2022-08-22T13:44:10.826Z,9.53
2022-08-22T13:45:17.625Z,5.27
2022-08-22T13:46:31.345Z,6.94
2022-08-22T13:47:40.038Z,3.96
2022-08-22T13:48:47.060Z,6.15
2022-08-22T13:49:55.478Z,4.54
2022-08-22T13:51:05.468Z,3.48
2022-08-22T13:52:36.939Z,5.81
2022-08-22T13:53:50.008Z,4.62
2022-08-22T13:55:04.623Z,6.71
2022-08-22T13:56:19.737Z,11.59
2022-08-22T13:57:42.218Z,7.48
2022-08-22T13:58:48.437Z,8.87
2022-08-22T14:00:28.638Z,8.74
2022-08-22T14:01:38.115Z,7.37
2022-08-22T14:03:02.738Z,5.54
2022-08-22T14:04:35.762Z,7.68
2022-08-22T14:05:43.947Z,6.38
2022-08-22T14:06:50.744Z,8.49
2022-08-22T14:08:01.466Z,6.48
2022-08-22T14:10:31.098Z,10.23
2022-08-22T14:11:43.804Z,6.60
2022-08-22T14:12:53.337Z,8.17
2022-08-22T14:13:59.619Z,8.98
2022-08-22T14:15:08.859Z,10.42
2022-08-22T14:16:24.676Z,6.03
2022-08-22T14:17:42.830Z,4.36
2022-08-22T14:18:58.757Z,6.46
2022-08-22T14:21:28.458Z,8.86
2022-08-22T14:22:36.567Z,6.51
2022-08-22T14:23:40.198Z,4.83
2022-08-22T14:24:55.902Z,8.64
2022-08-22T14:25:57.178Z,6.76
2022-08-22T14:27:09.681Z,6.35
2022-08-22T14:28:28.192Z,7.63
2022-08-22T14:29:34.908Z,5.39
2022-08-22T14:31:00.662Z,6.94
2022-08-22T14:32:22.996Z,4.52
2022-08-22T14:33:45.896Z,6.29
2022-08-22T14:34:54.029Z,7.63
2022-08-22T14:36:02.050Z,5.64
2022-08-22T14:37:12.539Z,8.50
2022-08-22T14:38:30.178Z,9.98
2022-08-22T14:39:36.907Z,5.78
2022-08-22T14:40:43.681Z,5.26
2022-08-22T14:41:52.346Z,9.26
2022-08-22T14:43:22.445Z,7.58
2022-08-22T14:44:28.720Z,8.21
2022-08-22T14:45:35.488Z,8.85
2022-08-22T14:46:58.879Z,5.67
2022-08-22T14:48:30.142Z,10.67
2022-08-22T14:49:51.201Z,11.26
2022-08-22T14:50:59.179Z,7.51
2022-08-22T14:52:08.946Z,10.16
2022-08-22T14:53:25.183Z,6.86
2022-08-22T14:54:29.541Z,8.68
2022-08-22T14:55:33.261Z,6.99
2022-08-22T14:56:38.255Z,4.77
2022-08-22T14:58:00.275Z,7.18
2022-08-22T14:59:08.693Z,5.30
2022-08-22T15:00:15.435Z,6.89
2022-08-22T15:01:24.255Z,8.43
2022-08-22T15:02:31.432Z,5.09
2022-08-22T15:03:38.116Z,8.39
2022-08-22T15:04:45.777Z,5.45
2022-08-22T15:05:53.492Z,10.63
2022-08-22T15:06:58.725Z,8.28
2022-08-22T15:08:01.966Z,6.34
2022-08-22T15:09:10.773Z,5.71
2022-08-22T15:10:34.102Z,7.88
2022-08-22T15:11:42.141Z,8.52
2022-08-22T15:12:50.688Z,7.47
2022-08-22T15:14:06.217Z,4.50
2022-08-22T15:15:13.192Z,9.08
2022-08-22T15:16:20.063Z,7.21
2022-08-22T15:17:39.488Z,5.14
2022-08-22T15:18:51.429Z,10.89
2022-08-22T15:19:52.100Z,8.87
2022-08-22T15:21:24.469Z,7.73
2022-08-22T15:22:28.262Z,9.30
2022-08-22T15:23:32.873Z,5.97
2022-08-22T15:24:44.428Z,7.43
2022-08-22T15:26:00.113Z,6.00
2022-08-22T15:27:06.917Z,8.27
2022-08-22T15:28:19.999Z,9.25
2022-08-22T15:29:24.772Z,4.46
2022-08-22T15:30:35.410Z,7.91
2022-08-22T15:31:43.419Z,9.01
2022-08-22T15:32:46.123Z,8.78
2022-08-22T15:33:50.753Z,4.14
2022-08-22T15:35:06.389Z,6.24
2022-08-22T15:36:16.761Z,8.77
2022-08-22T15:37:23.416Z,7.33
2022-08-22T15:38:32.407Z,7.47
2022-08-22T15:39:57.556Z,3.93
2022-08-22T15:41:24.025Z,5.10
2022-08-22T15:42:30.911Z,7.94
2022-08-22T15:43:37.143Z,5.18
2022-08-22T15:44:44.210Z,4.72
2022-08-22T15:45:50.288Z,7.34
2022-08-22T15:47:00.883Z,12.55
2022-08-22T15:48:10.728Z,10.69
2022-08-22T15:49:23.580Z,5.66
2022-08-22T15:50:30.753Z,6.71
2022-08-22T15:51:46.428Z,6.09
2022-08-22T15:53:10.268Z,5.64
2022-08-22T15:54:24.932Z,8.28
2022-08-22T15:55:28.380Z,6.31
2022-08-22T15:56:38.982Z,7.76
2022-08-22T15:57:50.968Z,8.58
2022-08-22T15:59:26.318Z,5.84
2022-08-22T16:00:43.583Z,7.26
2022-08-22T16:01:49.845Z,8.34
2022-08-22T16:02:58.022Z,6.26
2022-08-22T16:04:11.034Z,6.34
2022-08-22T16:05:17.622Z,5.37
2022-08-22T16:06:46.674Z,7.24
2022-08-22T16:07:59.300Z,4.60
2022-08-22T16:09:03.176Z,6.30
2022-08-22T16:10:13.006Z,6.52
2022-08-22T16:11:32.935Z,5.57
2022-08-22T16:12:40.787Z,5.05
2022-08-22T16:13:45.027Z,5.64
2022-08-22T16:14:50.130Z,9.63
2022-08-22T16:16:08.718Z,5.56
2022-08-22T16:17:39.955Z,4.62
2022-08-22T16:18:49.366Z,6.63
2022-08-22T16:20:19.434Z,6.69
2022-08-22T16:21:19.652Z,7.98
2022-08-22T16:22:26.823Z,3.99
2022-08-22T16:23:56.107Z,7.93
2022-08-22T16:25:02.175Z,6.21
2022-08-22T16:26:07.629Z,5.58
2022-08-22T16:27:19.895Z,4.10
2022-08-22T16:28:56.833Z,6.67
2022-08-22T16:29:41.803Z,3.04
2022-08-22T16:30:45.849Z,5.19
2022-08-22T16:31:54.104Z,7.32
2022-08-22T16:32:57.717Z,5.09
2022-08-22T16:34:19.810Z,10.44
2022-08-22T16:35:59.406Z,4.98
2022-08-22T16:37:16.721Z,7.52
2022-08-22T16:38:26.296Z,7.78
2022-08-22T16:39:36.098Z,8.68
2022-08-22T16:40:47.145Z,7.21